createdAt,value
2018-10-17T00:00:35.445Z,12.97
2018-10-17T00:03:03.803Z,9.63
2018-10-17T00:05:32.061Z,12.53
2018-10-17T00:08:01.082Z,13.03
2018-10-17T00:10:29.347Z,11.83
2018-10-17T00:12:57.763Z,12.33
2018-10-17T00:15:25.993Z,10.83
2018-10-17T00:17:54.256Z,9.77
2018-10-17T00:20:23.259Z,11.43
2018-10-17T00:22:51.547Z,10.63
2018-10-17T00:25:19.786Z,8.63
2018-10-17T00:27:48.055Z,7.60
2018-10-17T00:30:16.310Z,7.30
2018-10-17T00:32:44.936Z,7.13
2018-10-17T00:35:13.227Z,11.93
2018-10-17T00:37:42.241Z,10.33
2018-10-17T00:40:10.492Z,11.33
2018-10-17T00:42:39.538Z,10.83
2018-10-17T00:45:07.782Z,9.97
2018-10-17T00:47:36.800Z,9.20
2018-10-17T00:50:05.035Z,8.83
2018-10-17T00:52:33.276Z,12.27
2018-10-17T00:55:01.559Z,7.20
2018-10-17T00:57:29.834Z,7.00
2018-10-17T00:59:58.869Z,7.50
2018-10-17T01:02:27.124Z,6.77
2018-10-17T01:04:56.187Z,6.83
2018-10-17T01:07:24.411Z,8.67
2018-10-17T01:09:52.705Z,7.03
2018-10-17T01:12:20.952Z,7.63
2018-10-17T01:14:49.245Z,11.33
2018-10-17T01:17:17.503Z,9.60
2018-10-17T01:19:45.742Z,8.63
2018-10-17T01:22:14.775Z,9.33
2018-10-17T01:24:43.012Z,9.80
2018-10-17T01:27:12.068Z,12.63
2018-10-17T01:29:40.340Z,10.13
2018-10-17T01:32:08.614Z,9.17
2018-10-17T01:34:36.901Z,9.67
2018-10-17T01:37:05.199Z,8.33
2018-10-17T01:39:33.425Z,8.87
2018-10-17T01:42:02.081Z,9.27
2018-10-17T01:44:30.342Z,8.67
2018-10-17T01:46:59.466Z,10.37
2018-10-17T01:49:27.679Z,10.20
2018-10-17T01:51:55.951Z,8.87
2018-10-17T01:54:24.194Z,8.40
2018-10-17T01:56:52.493Z,9.30
2018-10-17T01:59:20.732Z,9.73
2018-10-17T02:01:49.201Z,8.80
2018-10-17T02:04:18.202Z,10.37
2018-10-17T02:06:46.481Z,10.23
2018-10-17T02:09:14.790Z,11.30
2018-10-17T02:11:43.031Z,10.23
2018-10-17T02:14:11.363Z,9.93
2018-10-17T02:16:39.623Z,10.77
2018-10-17T02:19:07.961Z,13.60
2018-10-17T02:21:36.142Z,10.23
2018-10-17T02:24:04.407Z,12.80
2018-10-17T02:26:32.678Z,10.63
2018-10-17T02:29:00.962Z,9.50
2018-10-17T02:31:29.589Z,8.60
2018-10-17T02:33:57.859Z,8.40
2018-10-17T02:36:26.098Z,8.60
2018-10-17T02:38:54.370Z,13.63
2018-10-17T02:41:22.639Z,14.00
2018-10-17T02:43:52.898Z,11.60
2018-10-17T02:46:21.205Z,14.73
2018-10-17T02:48:49.425Z,15.57
2018-10-17T02:51:17.699Z,10.43
2018-10-17T02:53:45.963Z,10.97
2018-10-17T02:56:14.227Z,11.77
2018-10-17T02:58:42.477Z,12.33
2018-10-17T03:01:11.796Z,12.23
2018-10-17T03:03:39.975Z,11.83
2018-10-17T03:06:08.239Z,12.17
2018-10-17T03:08:36.817Z,11.37
2018-10-17T03:11:05.932Z,10.30
2018-10-17T03:13:34.111Z,11.97
2018-10-17T03:16:02.390Z,10.40
2018-10-17T03:18:30.649Z,13.93
2018-10-17T03:20:59.678Z,12.13
2018-10-17T03:23:27.943Z,11.40
2018-10-17T03:25:56.186Z,9.17
2018-10-17T03:28:25.214Z,10.07
2018-10-17T03:30:53.544Z,10.33
2018-10-17T03:33:21.762Z,7.50
2018-10-17T03:35:50.105Z,7.23
2018-10-17T03:38:18.572Z,8.03
2018-10-17T03:40:46.844Z,7.60
2018-10-17T03:43:15.197Z,7.37
2018-10-17T03:45:43.387Z,8.03
2018-10-17T03:48:11.639Z,9.97
2018-10-17T03:50:39.890Z,13.53
2018-10-17T03:53:08.235Z,16.17
2018-10-17T03:55:36.426Z,11.23
2018-10-17T03:58:04.707Z,13.53
2018-10-17T04:00:32.978Z,10.57
2018-10-17T04:03:01.305Z,11.03
2018-10-17T04:05:29.488Z,13.57
2018-10-17T04:07:57.966Z,14.03
2018-10-17T04:10:26.275Z,20.40
2018-10-17T04:12:54.585Z,14.60
2018-10-17T04:15:23.130Z,16.33
2018-10-17T04:17:51.471Z,15.47
2018-10-17T04:20:19.725Z,14.13
2018-10-17T04:22:48.060Z,11.30
2018-10-17T04:25:16.326Z,10.83
2018-10-17T04:27:44.560Z,11.93
2018-10-17T04:30:12.820Z,10.87
2018-10-17T04:32:41.097Z,12.83
2018-10-17T04:35:09.518Z,10.13
2018-10-17T04:37:38.464Z,12.87
2018-10-17T04:40:06.704Z,11.07
2018-10-17T04:42:34.986Z,11.70
2018-10-17T04:45:03.246Z,11.27
2018-10-17T04:47:32.718Z,9.37
2018-10-17T04:50:00.978Z,14.90
2018-10-17T04:52:29.240Z,9.10
2018-10-17T04:54:57.494Z,13.97
2018-10-17T04:57:25.769Z,19.40
2018-10-17T04:59:54.041Z,16.50
2018-10-17T05:02:22.296Z,15.73
2018-10-17T05:04:51.318Z,19.53
2018-10-17T05:07:19.639Z,14.83
2018-10-17T05:09:47.890Z,13.70
2018-10-17T05:12:16.138Z,15.93
2018-10-17T05:14:44.386Z,14.20
2018-10-17T05:17:13.569Z,12.93
2018-10-17T05:19:41.901Z,17.67
2018-10-17T05:22:10.153Z,21.87
2018-10-17T05:24:38.443Z,12.93
2018-10-17T05:27:07.450Z,16.87
2018-10-17T05:29:35.778Z,12.90
2018-10-17T05:32:03.968Z,16.93
2018-10-17T05:34:32.246Z,13.73
2018-10-17T05:37:00.554Z,12.17
2018-10-17T05:39:29.524Z,10.30
2018-10-17T05:41:57.895Z,11.27
2018-10-17T05:44:26.187Z,12.73
2018-10-17T05:46:54.444Z,11.90
2018-10-17T05:49:22.711Z,10.07
2018-10-17T05:51:50.993Z,11.40
2018-10-17T05:54:19.258Z,10.60
2018-10-17T05:56:47.505Z,11.27
2018-10-17T05:59:15.762Z,12.30
2018-10-17T06:01:44.339Z,10.23
2018-10-17T06:04:12.494Z,9.83
2018-10-17T06:06:40.734Z,10.47
2018-10-17T06:09:09.071Z,10.43
2018-10-17T06:11:37.345Z,10.30
2018-10-17T06:14:05.596Z,12.17
2018-10-17T06:16:34.080Z,12.27
2018-10-17T06:19:02.388Z,12.80
2018-10-17T06:21:30.574Z,13.00
2018-10-17T06:23:59.618Z,14.10
2018-10-17T06:26:27.905Z,12.83
2018-10-17T06:28:56.218Z,12.83
2018-10-17T06:31:24.432Z,16.33
2018-10-17T06:33:52.820Z,17.20
2018-10-17T06:36:21.069Z,14.57
2018-10-17T06:38:49.342Z,16.27
2018-10-17T06:41:17.710Z,15.27
2018-10-17T06:43:46.043Z,15.13
2018-10-17T06:46:14.967Z,13.47
2018-10-17T06:48:44.015Z,15.53
2018-10-17T06:51:12.340Z,16.47
2018-10-17T06:53:40.606Z,13.17
2018-10-17T06:56:09.363Z,19.03
2018-10-17T06:58:37.734Z,16.97
2018-10-17T07:01:06.009Z,16.23
2018-10-17T07:03:34.268Z,18.07
2018-10-17T07:06:02.614Z,16.63
2018-10-17T07:08:31.724Z,16.53
2018-10-17T07:10:59.979Z,17.70
2018-10-17T07:13:28.958Z,17.17
2018-10-17T07:15:58.109Z,17.50
2018-10-17T07:18:27.998Z,17.17
2018-10-17T07:20:56.306Z,17.57
2018-10-17T07:23:24.583Z,14.30
2018-10-17T07:25:52.974Z,20.27
2018-10-17T07:28:21.257Z,22.10
2018-10-17T07:30:49.567Z,19.47
2018-10-17T07:33:17.862Z,19.73
2018-10-17T07:35:46.233Z,19.77
2018-10-17T07:38:14.404Z,23.53
2018-10-17T07:40:42.703Z,22.63
2018-10-17T07:43:10.975Z,24.70
2018-10-17T07:45:39.308Z,19.50
2018-10-17T07:48:07.581Z,24.53
2018-10-17T07:50:35.786Z,17.43
2018-10-17T07:53:04.070Z,20.20
2018-10-17T07:55:32.381Z,18.27
2018-10-17T07:58:00.667Z,19.70
2018-10-17T08:00:29.042Z,16.90
2018-10-17T08:02:57.206Z,21.07
2018-10-17T08:05:25.543Z,16.73
2018-10-17T08:07:54.292Z,15.00
2018-10-17T08:10:23.386Z,21.60
2018-10-17T08:12:51.630Z,25.43
2018-10-17T08:15:19.903Z,22.03
2018-10-17T08:17:48.166Z,18.17
2018-10-17T08:20:16.446Z,18.70
2018-10-17T08:22:44.713Z,19.53
2018-10-17T08:25:12.993Z,20.20
2018-10-17T08:27:41.268Z,20.63
2018-10-17T08:30:09.608Z,20.73
2018-10-17T08:32:37.799Z,17.50
2018-10-17T08:35:06.131Z,28.00
2018-10-17T08:37:34.747Z,25.20
2018-10-17T08:40:02.643Z,19.43
2018-10-17T08:42:30.981Z,18.80
2018-10-17T08:44:59.227Z,23.27
2018-10-17T08:47:27.520Z,19.30
2018-10-17T08:49:56.631Z,19.17
2018-10-17T08:52:24.816Z,19.27
2018-10-17T08:54:53.076Z,21.40
2018-10-17T08:57:21.324Z,20.80
2018-10-17T08:59:50.365Z,17.90
2018-10-17T09:02:18.634Z,20.00
2018-10-17T09:04:46.915Z,20.27
2018-10-17T09:07:15.167Z,24.80
2018-10-17T09:09:43.423Z,23.17
2018-10-17T09:12:11.975Z,18.63
2018-10-17T09:14:40.180Z,25.43
2018-10-17T09:17:09.190Z,18.43
2018-10-17T09:19:37.674Z,21.40
2018-10-17T09:22:06.918Z,23.80
2018-10-17T09:24:34.743Z,20.67
2018-10-17T09:27:03.055Z,18.67
2018-10-17T09:29:31.332Z,19.23
2018-10-17T09:31:59.599Z,19.97
2018-10-17T09:34:27.847Z,16.90
2018-10-17T09:36:56.153Z,17.17
2018-10-17T09:39:24.403Z,18.93
2018-10-17T09:41:52.723Z,15.63
2018-10-17T09:44:20.931Z,15.80
2018-10-17T09:46:49.197Z,17.00
2018-10-17T09:49:18.243Z,18.57
2018-10-17T09:51:46.533Z,18.30
2018-10-17T09:54:14.821Z,21.60
2018-10-17T09:56:43.018Z,20.93
2018-10-17T09:59:12.062Z,16.70
2018-10-17T10:01:40.350Z,16.20
2018-10-17T10:04:08.681Z,17.73
2018-10-17T10:06:37.827Z,17.50
2018-10-17T10:09:06.118Z,17.40
2018-10-17T10:11:35.215Z,19.23
2018-10-17T10:14:03.462Z,19.53
2018-10-17T10:16:31.746Z,15.20
2018-10-17T10:18:59.998Z,19.43
2018-10-17T10:21:28.282Z,19.50
2018-10-17T10:23:56.579Z,18.43
2018-10-17T10:26:24.835Z,18.47
2018-10-17T10:28:53.111Z,16.20
2018-10-17T10:31:21.394Z,18.07
2018-10-17T10:33:49.685Z,15.70
2018-10-17T10:36:17.968Z,17.53
2018-10-17T10:38:46.226Z,21.23
2018-10-17T10:41:14.523Z,15.30
2018-10-17T10:43:43.567Z,18.27
2018-10-17T10:46:11.855Z,18.47
2018-10-17T10:48:40.103Z,17.90
2018-10-17T10:51:08.473Z,16.03
2018-10-17T10:53:36.650Z,14.40
2018-10-17T10:56:04.939Z,15.93
2018-10-17T10:58:34.100Z,14.80
2018-10-17T11:01:02.318Z,13.33
2018-10-17T11:03:30.590Z,19.33
2018-10-17T11:05:58.858Z,12.97
2018-10-17T11:08:27.141Z,16.10
2018-10-17T11:10:55.427Z,15.23
2018-10-17T11:13:23.674Z,16.50
2018-10-17T11:15:51.951Z,15.60
2018-10-17T11:18:20.214Z,20.13
2018-10-17T11:20:48.501Z,14.57
2018-10-17T11:23:16.756Z,15.27
2018-10-17T11:25:45.762Z,18.73
2018-10-17T11:28:14.075Z,14.50
2018-10-17T11:30:42.327Z,15.43
2018-10-17T11:33:10.647Z,14.30
2018-10-17T11:35:38.895Z,15.73
2018-10-17T11:38:07.148Z,14.17
2018-10-17T11:40:35.490Z,19.93
2018-10-17T11:43:03.683Z,19.90
2018-10-17T11:45:31.955Z,17.50
2018-10-17T11:48:00.226Z,13.97
2018-10-17T11:50:28.564Z,17.60
2018-10-17T11:52:56.818Z,17.13
2018-10-17T11:55:25.075Z,13.33
2018-10-17T11:57:53.358Z,12.77
2018-10-17T12:00:21.633Z,15.40
2018-10-17T12:02:49.907Z,19.90
2018-10-17T12:05:18.361Z,15.00
2018-10-17T12:07:47.226Z,12.67
2018-10-17T12:21:45.324Z,12.17
2018-10-17T12:24:13.659Z,18.60
2018-10-17T12:26:41.851Z,15.97
2018-10-17T12:29:10.095Z,13.03
2018-10-17T12:31:39.115Z,13.93
2018-10-17T12:34:07.720Z,13.60
2018-10-17T12:36:36.033Z,14.63
2018-10-17T12:39:05.169Z,12.13
2018-10-17T12:41:33.452Z,12.73
2018-10-17T12:44:02.506Z,11.50
2018-10-17T12:46:30.785Z,10.43
2018-10-17T12:48:59.067Z,14.03
2018-10-17T12:51:27.310Z,10.00
2018-10-17T12:53:55.892Z,12.57
2018-10-17T12:56:24.895Z,9.90
2018-10-17T12:58:53.435Z,11.77
2018-10-17T13:01:21.692Z,11.73
2018-10-17T13:03:49.966Z,8.40
2018-10-17T13:06:18.202Z,8.40
2018-10-17T13:08:46.494Z,13.07
2018-10-17T13:11:14.857Z,12.77
2018-10-17T13:13:43.800Z,11.47
2018-10-17T13:16:12.068Z,12.50
2018-10-17T13:18:40.351Z,9.63
2018-10-17T13:21:08.604Z,15.37
2018-10-17T13:23:36.859Z,11.50
2018-10-17T13:26:05.890Z,16.90
2018-10-17T13:28:34.475Z,15.23
2018-10-17T13:31:02.747Z,10.87
2018-10-17T13:33:31.733Z,8.33
2018-10-17T13:36:00.014Z,11.90
2018-10-17T13:38:28.266Z,11.57
2018-10-17T13:40:56.647Z,9.73
2018-10-17T13:43:24.868Z,9.60
2018-10-17T13:45:53.143Z,10.50
2018-10-17T13:48:21.385Z,10.67
2018-10-17T13:50:49.640Z,9.13
2018-10-17T13:53:18.757Z,10.83
2018-10-17T13:55:46.922Z,11.10
2018-10-17T13:58:15.274Z,8.63
2018-10-17T14:00:44.267Z,10.20
2018-10-17T14:03:13.307Z,9.30
2018-10-17T14:05:41.587Z,11.73
2018-10-17T14:08:09.861Z,8.80
2018-10-17T14:10:38.119Z,11.37
2018-10-17T14:13:06.424Z,12.10
2018-10-17T14:15:34.677Z,10.03
2018-10-17T14:18:02.998Z,13.30
2018-10-17T14:20:31.208Z,10.10
2018-10-17T14:23:00.259Z,10.97
2018-10-17T14:25:28.544Z,11.73
2018-10-17T14:27:56.798Z,13.97
2018-10-17T14:30:25.071Z,11.17
2018-10-17T14:32:53.418Z,9.50
2018-10-17T14:35:21.606Z,14.13
2018-10-17T14:37:50.009Z,10.73
2018-10-17T14:40:19.002Z,9.20
2018-10-17T14:42:47.310Z,11.50
2018-10-17T14:45:15.665Z,17.80
2018-10-17T14:47:44.668Z,14.10
2018-10-17T14:50:13.685Z,10.53
2018-10-17T14:52:41.935Z,11.40
2018-10-17T14:55:10.979Z,11.30
2018-10-17T14:57:39.292Z,10.70
2018-10-17T15:00:07.532Z,13.70
2018-10-17T15:02:35.792Z,11.80
2018-10-17T15:05:04.109Z,15.53
2018-10-17T15:07:32.319Z,10.90
2018-10-17T15:10:01.502Z,15.10
2018-10-17T15:12:29.657Z,13.27
2018-10-17T15:14:57.928Z,13.87
2018-10-17T15:17:26.194Z,13.30
2018-10-17T15:19:54.513Z,9.67
2018-10-17T15:22:23.732Z,15.57
2018-10-17T15:24:52.000Z,14.67
2018-10-17T15:27:20.279Z,13.83
2018-10-17T15:29:48.558Z,11.40
2018-10-17T15:32:16.946Z,14.27
2018-10-17T15:34:45.228Z,11.37
2018-10-17T15:37:13.498Z,18.00
2018-10-17T15:39:41.815Z,14.57
2018-10-17T15:42:10.078Z,17.47
2018-10-17T15:44:38.362Z,17.63
2018-10-17T15:47:06.661Z,22.17
2018-10-17T15:49:35.763Z,24.57
2018-10-17T15:52:04.025Z,23.43
2018-10-17T15:54:33.082Z,28.67
2018-10-17T15:57:01.390Z,22.00
2018-10-17T15:59:29.620Z,23.03
2018-10-17T16:01:58.020Z,17.57
2018-10-17T16:04:26.990Z,18.47
2018-10-17T16:06:55.265Z,21.03
2018-10-17T16:09:23.541Z,21.10
2018-10-17T16:11:51.849Z,16.10
2018-10-17T16:14:20.203Z,15.30
2018-10-17T16:16:48.393Z,18.37
2018-10-17T16:19:16.693Z,18.87
2018-10-17T16:21:45.726Z,15.70
2018-10-17T16:24:14.041Z,19.87
2018-10-17T16:26:42.282Z,23.80
2018-10-17T16:29:10.547Z,24.13
2018-10-17T16:31:38.827Z,26.33
2018-10-17T16:34:07.625Z,30.57
2018-10-17T16:36:37.167Z,19.97
2018-10-17T16:39:05.461Z,25.10
2018-10-17T16:41:34.622Z,22.40
2018-10-17T16:44:02.919Z,22.17
2018-10-17T16:46:31.134Z,24.50
2018-10-17T16:48:59.415Z,22.70
2018-10-17T16:51:28.269Z,28.20
2018-10-17T16:53:56.648Z,18.80
2018-10-17T16:56:24.872Z,25.60
2018-10-17T16:58:53.918Z,28.97
2018-10-17T17:01:22.258Z,21.47
2018-10-17T17:03:50.515Z,21.60
2018-10-17T17:06:19.559Z,20.67
2018-10-17T17:08:48.588Z,21.70
2018-10-17T17:11:16.874Z,21.43
2018-10-17T17:13:45.146Z,25.63
2018-10-17T17:16:13.498Z,20.37
2018-10-17T17:18:41.724Z,18.70
2018-10-17T17:21:10.063Z,19.10
2018-10-17T17:23:38.315Z,21.10
2018-10-17T17:26:06.603Z,22.07
2018-10-17T17:28:34.911Z,23.97
2018-10-17T17:33:38.840Z,21.00
2018-10-17T17:36:08.795Z,18.67
2018-10-17T17:38:36.996Z,18.97
2018-10-17T17:41:05.269Z,17.97
2018-10-17T17:43:33.542Z,21.70
2018-10-17T17:46:01.877Z,21.23
2018-10-17T17:48:30.134Z,20.60
2018-10-17T17:50:58.456Z,18.90
2018-10-17T17:53:26.699Z,20.87
2018-10-17T17:55:54.983Z,26.87
2018-10-17T17:58:24.099Z,26.13
2018-10-17T18:00:52.314Z,19.73
2018-10-17T18:03:20.563Z,20.97
2018-10-17T18:05:48.851Z,18.90
2018-10-17T18:08:17.142Z,20.70
2018-10-17T18:10:45.432Z,18.17
2018-10-17T18:13:13.673Z,19.80
2018-10-17T18:15:41.961Z,18.93
2018-10-17T18:18:10.915Z,17.67
2018-10-17T18:20:39.926Z,23.10
2018-10-17T18:23:08.239Z,22.67
2018-10-17T18:25:36.498Z,23.30
2018-10-17T18:28:04.913Z,23.40
2018-10-17T18:30:33.117Z,16.80
2018-10-17T18:33:01.389Z,19.03
2018-10-17T18:35:29.662Z,18.40
2018-10-17T18:37:58.112Z,21.23
2018-10-17T18:40:26.466Z,18.00
2018-10-17T18:42:55.439Z,17.37
2018-10-17T18:45:23.825Z,17.70
2018-10-17T18:47:52.236Z,16.13
2018-10-17T18:50:20.528Z,20.90
2018-10-17T18:52:49.571Z,16.20
2018-10-17T18:55:18.142Z,16.40
2018-10-17T18:57:46.410Z,17.00
2018-10-17T19:00:14.671Z,18.07
2018-10-17T19:02:42.981Z,18.20
2018-10-17T19:05:11.227Z,16.37
2018-10-17T19:07:39.524Z,19.73
2018-10-17T19:10:07.831Z,21.60
2018-10-17T19:12:36.121Z,19.87
2018-10-17T19:15:04.493Z,17.67
2018-10-17T19:17:32.690Z,21.50
2018-10-17T19:20:00.983Z,17.17
2018-10-17T19:22:29.261Z,18.77
2018-10-17T19:24:57.510Z,18.13
2018-10-17T19:27:26.559Z,20.53
2018-10-17T19:29:54.847Z,21.70
2018-10-17T19:32:23.140Z,21.73
2018-10-17T19:34:51.509Z,23.20
2018-10-17T19:37:19.798Z,17.33
2018-10-17T19:39:48.083Z,17.67
2018-10-17T19:42:17.843Z,17.80
2018-10-17T19:44:46.164Z,17.97
2018-10-17T19:47:14.487Z,19.53
2018-10-17T19:49:42.796Z,21.13
2018-10-17T19:52:11.083Z,18.23
2018-10-17T19:54:39.338Z,19.93
2018-10-17T19:57:07.682Z,17.97
2018-10-17T19:59:37.104Z,18.67
2018-10-17T20:02:05.399Z,19.03
2018-10-17T20:04:33.666Z,20.80
2018-10-17T20:07:01.957Z,18.97
2018-10-17T20:09:30.229Z,22.37
2018-10-17T20:11:58.550Z,18.70
2018-10-17T20:14:26.869Z,20.93
2018-10-17T20:16:55.841Z,16.13
2018-10-17T20:19:24.174Z,19.13
2018-10-17T20:21:53.214Z,22.03
2018-10-17T20:24:21.526Z,20.70
2018-10-17T20:26:50.046Z,21.40
2018-10-17T20:29:18.319Z,21.20
2018-10-17T20:31:46.603Z,17.70
2018-10-17T20:34:15.087Z,21.33
2018-10-17T20:36:43.349Z,19.93
2018-10-17T20:39:11.614Z,17.50
2018-10-17T20:41:40.093Z,19.40
2018-10-17T20:44:09.215Z,16.20
2018-10-17T20:46:37.431Z,22.20
2018-10-17T20:49:05.799Z,19.40
2018-10-17T20:51:34.067Z,18.23
2018-10-17T20:54:02.331Z,19.90
2018-10-17T20:56:31.373Z,22.47
2018-10-17T20:59:00.418Z,18.40
2018-10-17T21:01:28.671Z,16.80
2018-10-17T21:03:56.945Z,19.33
2018-10-17T21:06:25.218Z,17.47
2018-10-17T21:08:53.484Z,18.23
2018-10-17T21:11:21.773Z,19.70
2018-10-17T21:13:50.025Z,23.03
2018-10-17T21:16:19.064Z,17.27
2018-10-17T21:18:47.410Z,18.33
2018-10-17T21:21:15.623Z,18.40
2018-10-17T21:23:43.904Z,15.70
2018-10-17T21:26:12.200Z,20.87
2018-10-17T21:28:40.480Z,17.57
2018-10-17T21:31:09.520Z,15.73
2018-10-17T21:33:37.813Z,21.17
2018-10-17T21:36:06.384Z,18.90
2018-10-17T21:38:34.656Z,17.53
2018-10-17T21:41:02.943Z,22.77
2018-10-17T21:43:31.216Z,18.30
2018-10-17T21:46:00.287Z,19.33
2018-10-17T21:48:28.563Z,20.07
2018-10-17T21:50:56.842Z,17.63
2018-10-17T21:53:25.119Z,17.10
2018-10-17T21:55:56.505Z,13.57
2018-10-17T21:58:25.427Z,11.97
2018-10-17T22:00:53.699Z,14.63
2018-10-17T22:03:22.180Z,15.83
2018-10-17T22:05:50.446Z,15.30
2018-10-17T22:08:19.453Z,15.27
2018-10-17T22:10:47.743Z,14.70
2018-10-17T22:13:15.997Z,12.80
2018-10-17T22:15:45.047Z,12.80
2018-10-17T22:18:13.296Z,10.50
2018-10-17T22:20:41.539Z,9.00
2018-10-17T22:23:10.582Z,10.53
2018-10-17T22:25:38.826Z,10.80
2018-10-17T22:28:07.088Z,12.57
2018-10-17T22:30:35.594Z,12.50
2018-10-17T22:33:03.868Z,13.13
2018-10-17T22:35:32.127Z,13.67
2018-10-17T22:38:00.430Z,13.10
2018-10-17T22:40:28.662Z,14.60
2018-10-17T22:42:56.921Z,16.03
2018-10-17T22:45:25.963Z,18.40
2018-10-17T22:47:54.218Z,14.97
2018-10-17T22:50:22.497Z,20.93
2018-10-17T22:52:51.027Z,18.23
2018-10-17T22:55:19.378Z,20.23
2018-10-17T22:57:47.535Z,17.60
2018-10-17T23:00:15.820Z,17.83
2018-10-17T23:02:44.151Z,18.60
2018-10-17T23:05:12.403Z,18.67
2018-10-17T23:07:40.677Z,16.80
2018-10-17T23:10:09.056Z,18.37
2018-10-17T23:12:37.312Z,18.77
2018-10-17T23:15:05.563Z,18.57
2018-10-17T23:17:33.826Z,17.13
2018-10-17T23:20:02.154Z,20.33
2018-10-17T23:22:31.412Z,19.00
2018-10-17T23:24:59.672Z,17.80
2018-10-17T23:27:27.926Z,19.47
2018-10-17T23:29:56.970Z,21.97
2018-10-17T23:32:25.224Z,23.53
2018-10-17T23:34:53.486Z,16.53
2018-10-17T23:37:21.742Z,20.57
2018-10-17T23:39:50.795Z,16.97
2018-10-17T23:42:19.031Z,21.43
2018-10-17T23:44:47.306Z,16.40
2018-10-17T23:47:15.660Z,13.80
2018-10-17T23:49:44.694Z,13.20
2018-10-17T23:52:12.970Z,15.10
2018-10-17T23:54:41.229Z,14.23
2018-10-17T23:57:09.730Z,17.93
2018-10-17T23:59:37.990Z,15.87
